Date,TemperatureHighF,TemperatureAvgF,TemperatureLowF,DewpointHighF,DewpointAvgF,DewpointLowF,HumidityHigh,HumidityAvg,HumidityLow,PressureMaxIn,PressureMinIn,WindSpeedMaxMPH,WindSpeedAvgMPH,GustSpeedMaxMPH,PrecipitationSumIn
2013-5-1,65.2,56.8,43.6,50.0,44.8,35.0,87,65,41,30.30,29.89,25,7,30,0.00
2013-5-2,43.7,39.7,34.8,37.0,34.1,31.0,89,80,73,30.37,30.29,18,6,25,0.01
2013-5-3,46.0,39.4,34.2,45.0,37.5,32.0,95,93,88,30.31,30.07,9,4,17,0.29
2013-5-4,73.8,58.6,45.6,53.0,47.5,44.0,95,70,37,30.09,30.01,10,4,17,0.03
2013-5-5,76.5,62.8,51.0,50.0,45.5,41.0,77,56,29,30.07,29.98,8,3,12,0.03
2013-5-6,77.5,64.0,48.2,46.0,42.3,36.0,88,51,24,30.08,29.97,7,2,13,0.00
2013-5-7,82.6,68.5,50.8,47.0,38.8,29.0,79,39,15,30.04,29.93,12,2,14,0.00
2013-5-8,83.6,71.3,54.2,49.0,41.9,36.0,71,38,18,29.98,29.89,8,2,11,0.00
2013-5-9,68.8,58.8,47.3,56.0,52.6,45.0,93,81,51,29.96,29.88,14,3,19,0.50
2013-5-10,64.3,52.2,42.7,49.0,42.8,37.0,93,73,36,30.01,29.89,13,4,21,0.53
2013-5-11,52.8,47.8,40.4,48.0,34.9,23.0,88,63,35,30.04,29.77,31,12,38,0.01
2013-5-12,53.8,44.5,35.9,33.0,23.8,19.0,74,47,26,30.13,30.05,20,10,32,0.01
2013-5-13,64.6,51.6,32.5,35.0,27.1,22.0,79,42,22,30.17,29.81,10,4,17,0.00
2013-5-14,87.7,70.4,50.0,57.0,47.1,36.0,70,46,21,29.81,29.44,11,4,17,0.00
2013-5-15,78.8,70.3,63.0,49.0,43.9,38.0,61,40,24,29.82,29.50,19,8,28,0.00
2013-5-16,85.1,69.3,53.5,52.0,46.4,41.0,84,48,22,29.98,29.80,14,3,23,0.00
2013-5-17,60.2,55.0,50.7,53.0,47.8,39.0,90,78,46,30.08,29.96,13,7,19,0.47
2013-5-18,54.2,54.0,53.9,51.0,51.0,51.0,88,88,88,30.07,30.06,10,6,15,0.47
2013-5-20,82.5,75.8,72.0,63.0,53.5,-99.9,71,51,44,29.64,29.56,20,-32,28,0.00
2013-5-21,76.3,68.8,62.4,65.0,60.9,57.0,94,77,53,29.65,29.50,15,4,20,0.05
2013-5-22,64.1,60.9,54.2,62.0,58.3,52.0,95,91,80,29.81,29.62,14,3,23,0.97
2013-5-23,62.8,51.8,44.9,52.0,43.3,32.0,93,76,32,30.16,29.84,14,7,25,1.09
2013-5-24,67.9,59.5,51.7,41.0,30.5,-99.9,57,37,25,30.44,0.00,10,-30,11,0.00
2013-5-25,67.2,58.9,50.4,45.0,39.9,35.0,78,51,33,30.36,30.25,15,5,18,0.00
2013-5-26,67.7,58.5,46.3,45.0,40.4,37.0,75,53,33,30.29,30.13,14,6,21,0.00
2013-5-27,61.2,57.0,53.4,54.0,48.0,39.0,95,74,51,30.15,29.89,18,7,29,0.33
2013-5-28,60.7,56.8,53.4,60.0,55.5,52.0,97,95,92,29.89,29.70,13,4,16,0.14
2013-5-29,87.4,69.0,59.7,68.0,62.6,59.0,98,83,42,29.84,29.73,14,3,33,0.92
2013-5-30,83.0,72.4,66.3,72.0,67.6,63.0,94,85,60,29.80,29.60,17,6,23,0.19
2013-5-31,81.4,71.9,64.5,65.0,62.0,59.0,90,73,47,29.68,29.58,18,8,26,0.19